Time;durP1;ratioP1;P1;durP2;ratioP2;P2;SDS_P1;SDS_P2;PMS_P1;PMS_P2;Temp;Humidity;BMP_temperature;BMP_pressure;BME280_temperature;BME280_humidity;BME280_pressure;Samples;Min_cycle;Max_cycle;Signal;HPM_P1;HPM_P2
2022/11/17 00:02:24;;;;;;;0.20;0.20;;;;;;;5.18;100.00;98867.34;5034278;28;20650;-80
2022/11/17 00:04:49;;;;;;;0.50;0.50;;;;;;;5.19;100.00;98873.56;5033863;28;20176;-77
2022/11/17 00:07:15;;;;;;;0.03;0.03;;;;;;;5.16;100.00;98866.88;5033931;28;20634;-81
2022/11/17 00:09:40;;;;;;;2.50;2.30;;;;;;;5.14;100.00;98865.59;5033726;28;20214;-75
2022/11/17 00:14:50;;;;;;;1.23;1.23;;;;;;;5.13;100.00;98847.78;5033712;28;20206;-78
2022/11/17 00:17:15;;;;;;;0.80;0.60;;;;;;;5.12;100.00;98844.25;5033987;28;20168;-76
2022/11/17 00:22:24;;;;;;;1.43;1.33;;;;;;;5.07;100.00;98839.00;5033767;28;20203;-78
2022/11/17 00:24:50;;;;;;;2.30;2.13;;;;;;;5.06;100.00;98831.97;5033554;28;20259;-81
2022/11/17 00:27:16;;;;;;;1.37;1.30;;;;;;;5.10;100.00;98837.56;5037287;28;20271;-76
2022/11/17 00:29:41;;;;;;;1.80;1.70;;;;;;;5.06;100.00;98821.97;5053733;28;20393;-76
2022/11/17 00:34:58;;;;;;;2.60;2.40;;;;;;;5.04;100.00;98805.22;5053574;28;20380;-82
2022/11/17 00:37:24;;;;;;;2.43;2.20;;;;;;;5.04;100.00;98807.13;5053298;28;20623;-78
2022/11/17 00:39:50;;;;;;;2.00;1.90;;;;;;;5.02;100.00;98812.06;5053389;28;20197;-75
2022/11/17 00:42:15;;;;;;;2.40;1.63;;;;;;;5.04;100.00;98802.53;5051981;28;20207;-76
2022/11/17 00:44:40;;;;;;;3.70;3.40;;;;;;;5.02;100.00;98791.22;5053102;28;20591;-76
2022/11/17 00:47:06;;;;;;;3.83;3.00;;;;;;;4.98;100.00;98800.28;5053190;28;20189;-79
2022/11/17 00:49:31;;;;;;;2.77;2.30;;;;;;;4.98;100.00;98789.47;5053225;28;20175;-81
2022/11/17 00:51:56;;;;;;;6.20;4.67;;;;;;;4.99;100.00;98788.34;5053135;28;20179;-75
2022/11/17 00:54:22;;;;;;;1.90;1.80;;;;;;;4.97;100.00;98783.25;5052981;28;20179;-76
2022/11/17 00:56:48;;;;;;;4.30;3.70;;;;;;;4.97;100.00;98775.13;5053240;28;20622;-76
2022/11/17 00:59:14;;;;;;;2.30;2.20;;;;;;;5.01;100.00;98765.25;5053016;28;20274;-77
2022/11/17 01:01:40;;;;;;;3.83;3.50;;;;;;;4.99;100.00;98774.81;5052697;28;20211;-75
2022/11/17 01:04:06;;;;;;;1.70;1.60;;;;;;;4.98;100.00;98767.81;5051593;28;20266;-76
2022/11/17 01:06:34;;;;;;;1.87;1.77;;;;;;;4.97;100.00;98764.31;5052655;28;20291;-75
2022/11/17 01:09:02;;;;;;;1.37;1.27;;;;;;;4.94;100.00;98762.25;5052718;28;20523;-79
2022/11/17 01:11:27;;;;;;;1.40;1.10;;;;;;;4.97;100.00;98771.63;5052206;28;20179;-80
2022/11/17 01:13:55;;;;;;;1.37;1.27;;;;;;;4.99;100.00;98782.94;5052644;28;20182;-79
2022/11/17 01:16:21;;;;;;;3.00;2.13;;;;;;;4.96;100.00;98775.44;5052723;28;20262;-79
2022/11/17 01:18:48;;;;;;;2.83;2.63;;;;;;;4.97;100.00;98771.63;5052744;28;20179;-76
2022/11/17 01:21:17;;;;;;;1.47;1.37;;;;;;;4.94;100.00;98762.25;5050994;28;20213;-78
2022/11/17 01:23:46;;;;;;;2.37;2.03;;;;;;;4.93;100.00;98759.84;5052305;28;20566;-75
2022/11/17 01:26:13;;;;;;;5.67;4.13;;;;;;;4.89;100.00;98739.94;5051108;28;20245;-77
2022/11/17 01:28:40;;;;;;;1.43;1.40;;;;;;;4.92;100.00;98750.13;5052462;28;20437;-75
2022/11/17 01:31:26;;;;;;;1.13;0.80;;;;;;;4.95;100.00;98746.81;5052761;28;20179;-77
2022/11/17 01:33:52;;;;;;;2.97;2.43;;;;;;;4.90;100.00;98755.06;5051865;28;20681;-74
2022/11/17 01:36:22;;;;;;;5.10;3.60;;;;;;;4.91;100.00;98748.53;5052358;28;20171;-80
2022/11/17 01:38:47;;;;;;;0.20;0.20;;;;;;;4.88;100.00;98752.66;5052112;28;20236;-75
2022/11/17 01:41:21;;;;;;;2.73;2.53;;;;;;;4.90;100.00;98744.22;5052287;28;20254;-82
2022/11/17 01:43:58;;;;;;;2.20;2.10;;;;;;;4.90;100.00;98728.00;5052053;28;20266;-79
2022/11/17 01:46:26;;;;;;;1.13;1.10;;;;;;;4.87;100.00;98736.75;5052192;28;20167;-80
2022/11/17 01:48:56;;;;;;;3.40;3.13;;;;;;;4.86;100.00;98724.34;5051818;28;20185;-77
2022/11/17 01:51:22;;;;;;;4.47;4.13;;;;;;;4.82;100.00;98726.88;5051943;28;20205;-79
2022/11/17 01:53:50;;;;;;;2.77;2.57;;;;;;;4.77;100.00;98721.59;5051705;28;20472;-76
2022/11/17 01:56:22;;;;;;;2.43;2.27;;;;;;;4.71;100.00;98709.34;5051576;28;20179;-77
2022/11/17 01:58:54;;;;;;;8.17;6.10;;;;;;;4.65;100.00;98719.53;5051613;28;20175;-78
2022/11/17 02:01:20;;;;;;;3.90;3.60;;;;;;;4.60;100.00;98719.66;5050430;28;20629;-76
2022/11/17 02:03:48;;;;;;;5.30;4.80;;;;;;;4.59;100.00;98709.94;5051257;28;20280;-76
2022/11/17 02:06:27;;;;;;;8.00;7.10;;;;;;;4.57;100.00;98709.47;5051494;28;20254;-76
2022/11/17 02:08:53;;;;;;;4.60;4.20;;;;;;;4.60;100.00;98708.84;5051300;28;20706;-81
2022/11/17 02:11:21;;;;;;;4.97;4.57;;;;;;;4.53;100.00;98703.09;5051635;28;20233;-76
2022/11/17 02:13:48;;;;;;;6.50;5.93;;;;;;;4.52;100.00;98703.41;5052645;28;20674;-87
2022/11/17 02:16:15;;;;;;;5.23;4.40;;;;;;;4.51;100.00;98704.53;5052690;28;20355;-89
2022/11/17 02:18:42;;;;;;;5.70;4.63;;;;;;;4.51;100.00;98696.41;5053510;28;20167;-88
2022/11/17 02:21:26;;;;;;;1.80;1.63;;;;;;;4.51;100.00;98699.13;5051990;28;20532;-88
2022/11/17 02:24:01;;;;;;;5.53;5.07;;;;;;;4.48;100.00;98687.00;5050855;28;20258;-90
2022/11/17 02:26:48;;;;;;;4.57;3.00;;;;;;;4.45;100.00;98684.94;5052046;28;20171;-89
2022/11/17 02:29:36;;;;;;;2.83;2.57;;;;;;;4.43;100.00;98674.44;5051640;28;20321;-87
2022/11/17 02:32:09;;;;;;;3.23;2.93;;;;;;;4.40;100.00;98675.06;5051383;28;20749;-88
2022/11/17 02:34:58;;;;;;;1.87;1.77;;;;;;;4.40;100.00;98663.47;5051384;28;20233;-87
2022/11/17 02:37:32;;;;;;;7.43;6.73;;;;;;;4.36;100.00;98652.50;5051363;28;20172;-89
2022/11/17 02:40:22;;;;;;;5.10;4.70;;;;;;;4.41;100.00;98638.03;5051455;28;20679;-88
2022/11/17 02:45:49;;;;;;;5.10;4.63;;;;;;;4.33;100.00;98631.47;5051479;28;20228;-89
2022/11/17 02:48:28;;;;;;;4.33;4.03;;;;;;;4.32;100.00;98626.38;5051417;28;20170;-87
2022/11/17 02:50:56;;;;;;;4.00;3.63;;;;;;;4.32;100.00;98624.47;5051460;28;20175;-91
2022/11/17 02:53:24;;;;;;;2.93;2.73;;;;;;;4.33;100.00;98627.97;5051113;28;20207;-89
2022/11/17 02:55:51;;;;;;;3.03;2.83;;;;;;;4.32;100.00;98610.16;5051156;28;20175;-89
2022/11/17 02:58:17;;;;;;;6.63;6.03;;;;;;;4.27;100.00;98630.03;5051151;28;20203;-91
2022/11/17 03:01:04;;;;;;;4.57;4.17;;;;;;;4.27;100.00;98631.94;5051110;28;20229;-88
2022/11/17 03:04:02;;;;;;;2.90;2.70;;;;;;;4.25;100.00;98616.03;5050929;28;20186;-87
2022/11/17 03:06:30;;;;;;;3.03;2.80;;;;;;;4.32;100.00;98619.06;5050684;28;20210;-86
2022/11/17 03:09:08;;;;;;;3.77;3.47;;;;;;;4.26;100.00;98623.03;5051332;28;20187;-89
2022/11/17 03:11:58;;;;;;;6.13;5.63;;;;;;;4.26;100.00;98622.25;5051139;28;20201;-88
2022/11/17 03:14:31;;;;;;;5.40;3.03;;;;;;;4.30;100.00;98617.78;5050906;28;20179;-88
2022/11/17 03:17:05;;;;;;;3.97;3.67;;;;;;;4.27;100.00;98630.03;5033016;28;20185;-85
2022/11/17 03:19:45;;;;;;;5.27;2.90;;;;;;;4.29;100.00;98635.91;5051009;28;20631;-89
2022/11/17 03:22:27;;;;;;;1.00;0.93;;;;;;;4.31;100.00;98612.06;5051024;28;20182;-87
2022/11/17 03:24:59;;;;;;;0.83;0.83;;;;;;;4.30;100.00;98613.19;5051154;28;20163;-88
2022/11/17 03:27:28;;;;;;;3.63;2.83;;;;;;;4.28;100.00;98601.09;5050699;28;20571;-87
2022/11/17 03:29:58;;;;;;;2.70;2.50;;;;;;;4.31;100.00;98603.16;5050906;28;20265;-89
2022/11/17 03:32:27;;;;;;;3.27;3.03;;;;;;;4.31;100.00;98608.56;5050654;28;20218;-87
2022/11/17 03:34:57;;;;;;;3.30;3.00;;;;;;;4.31;100.00;98605.88;5052953;28;20186;-87
2022/11/17 03:37:25;;;;;;;2.90;2.70;;;;;;;4.32;100.00;98616.38;5054490;28;20182;-87
2022/11/17 03:39:54;;;;;;;1.83;1.73;;;;;;;4.31;100.00;98606.66;5054557;28;20175;-87
2022/11/17 03:42:19;;;;;;;4.83;4.00;;;;;;;4.31;100.00;98611.28;5054652;28;20264;-88
2022/11/17 03:44:51;;;;;;;4.27;3.90;;;;;;;4.28;100.00;98599.19;5054884;28;20562;-89
2022/11/17 03:47:19;;;;;;;2.60;2.40;;;;;;;4.31;100.00;98605.88;5036624;28;20195;-90
2022/11/17 03:50:06;;;;;;;3.73;3.43;;;;;;;4.28;100.00;98591.09;5054292;28;20171;-85
2022/11/17 03:52:33;;;;;;;4.27;3.87;;;;;;;4.28;100.00;98593.78;5054403;28;20206;-91
2022/11/17 03:54:59;;;;;;;5.50;5.10;;;;;;;4.28;100.00;98577.56;5054552;28;20218;-87
2022/11/17 03:57:44;;;;;;;4.83;3.63;;;;;;;4.28;100.00;98579.47;5054493;28;20175;-89
2022/11/17 04:00:13;;;;;;;4.87;4.53;;;;;;;4.26;100.00;98577.09;5054202;28;20175;-86
2022/11/17 04:02:43;;;;;;;4.53;2.87;;;;;;;4.29;100.00;98584.56;5036076;28;20236;-89
2022/11/17 04:05:10;;;;;;;3.40;2.13;;;;;;;4.31;100.00;98579.63;5054112;28;20191;-88
2022/11/17 04:07:41;;;;;;;3.17;2.97;;;;;;;4.29;100.00;98575.66;5054207;28;20180;-85
2022/11/17 04:10:09;;;;;;;4.53;4.20;;;;;;;4.27;100.00;98580.59;5053907;28;20275;-89
2022/11/17 04:18:03;;;;;;;2.00;1.90;;;;;;;4.24;100.00;98565.00;5054282;28;20190;-88
2022/11/17 04:20:34;;;;;;;4.93;4.47;;;;;;;4.23;100.00;98550.69;5053935;28;20180;-85
2022/11/17 04:23:06;;;;;;;5.53;5.00;;;;;;;4.21;100.00;98552.94;5053327;28;20183;-83
2022/11/17 04:28:37;;;;;;;7.83;4.87;;;;;;;4.21;100.00;98558.34;5053210;28;20719;-88
2022/11/17 04:31:23;;;;;;;3.70;3.37;;;;;;;4.22;100.00;98557.22;5053629;28;20171;-75
2022/11/17 04:33:51;;;;;;;3.00;1.57;;;;;;;4.24;100.00;98563.09;5054580;28;20175;-75
2022/11/17 04:36:18;;;;;;;3.27;1.67;;;;;;;4.27;100.00;98553.56;5050059;28;20179;-75
2022/11/17 04:38:46;;;;;;;2.70;2.50;;;;;;;4.26;100.00;98547.34;5053104;28;20638;-75
2022/11/17 04:43:58;;;;;;;3.50;3.20;;;;;;;4.28;100.00;98547.03;5053190;28;20177;-75
2022/11/17 04:46:24;;;;;;;2.30;2.13;;;;;;;4.27;100.00;98537.34;5052401;28;20270;-75
2022/11/17 04:48:52;;;;;;;2.63;2.47;;;;;;;4.29;100.00;98527.78;5053095;28;20255;-75
2022/11/17 04:51:17;;;;;;;2.37;1.87;;;;;;;4.28;100.00;98520.00;5053043;28;20186;-78
2022/11/17 04:53:43;;;;;;;3.77;3.47;;;;;;;4.28;100.00;98525.41;5052816;28;20198;-75
2022/11/17 04:56:09;;;;;;;2.70;2.50;;;;;;;4.31;100.00;98511.25;5052855;28;20198;-77
2022/11/17 04:58:34;;;;;;;1.53;1.43;;;;;;;4.31;100.00;98517.47;5053025;28;20207;-75
2022/11/17 05:01:12;;;;;;;8.90;4.07;;;;;;;4.31;100.00;98516.66;5053012;28;20175;-78
2022/11/17 05:03:41;;;;;;;2.87;2.67;;;;;;;4.30;100.00;98499.66;5052773;28;20281;-75
2022/11/17 05:06:12;;;;;;;2.17;1.70;;;;;;;4.34;100.00;98513.31;5052697;28;20171;-75
2022/11/17 05:08:38;;;;;;;2.30;2.20;;;;;;;4.33;100.00;98504.41;5052699;28;20232;-75
2022/11/17 05:13:52;;;;;;;3.90;3.60;;;;;;;4.30;100.00;98518.56;5052796;28;20186;-75
2022/11/17 05:19:04;;;;;;;2.53;2.33;;;;;;;4.24;100.00;98497.44;5052396;28;20260;-74
2022/11/17 05:21:30;;;;;;;5.77;3.33;;;;;;;4.29;100.00;98497.28;5052573;28;20263;-76
2022/11/17 05:23:55;;;;;;;3.90;3.53;;;;;;;4.23;100.00;98496.66;5052340;28;20604;-74
2022/11/17 05:26:23;;;;;;;4.03;3.73;;;;;;;4.26;100.00;98497.91;5052422;28;20686;-80
2022/11/17 05:28:49;;;;;;;2.90;2.63;;;;;;;4.30;100.00;98485.34;5052317;28;20631;-79
2022/11/17 05:31:14;;;;;;;4.77;4.37;;;;;;;4.32;100.00;98500.13;5052372;28;20175;-75
2022/11/17 05:33:40;;;;;;;2.97;2.77;;;;;;;4.31;100.00;98498.53;5051730;28;20199;-75
2022/11/17 05:36:05;;;;;;;5.83;5.27;;;;;;;4.25;100.00;98499.03;5052271;28;20207;-77
2022/11/17 05:38:31;;;;;;;3.17;2.97;;;;;;;4.29;100.00;98491.88;5052326;28;20207;-76
2022/11/17 05:40:56;;;;;;;2.93;2.67;;;;;;;4.29;100.00;98513.50;5052167;28;20196;-77
2022/11/17 05:43:22;;;;;;;2.23;2.07;;;;;;;4.25;100.00;98491.72;5052000;28;20469;-74
2022/11/17 05:45:47;;;;;;;1.80;1.60;;;;;;;4.22;100.00;98484.25;5051988;28;20708;-78
2022/11/17 05:48:13;;;;;;;4.73;4.40;;;;;;;4.20;100.00;98470.25;5052013;28;20262;-74
2022/11/17 05:50:38;;;;;;;2.60;2.40;;;;;;;4.21;100.00;98473.75;5051851;28;20171;-76
2022/11/17 05:53:04;;;;;;;2.70;2.40;;;;;;;4.19;100.00;98476.75;5051622;28;20297;-74
2022/11/17 05:55:29;;;;;;;1.67;1.57;;;;;;;4.20;100.00;98469.47;5050352;28;20262;-75
2022/11/17 05:57:59;;;;;;;4.93;4.63;;;;;;;4.18;100.00;98475.94;5051889;28;20254;-77
2022/11/17 06:00:24;;;;;;;3.70;3.40;;;;;;;4.12;100.00;98469.13;5051727;28;20228;-76
2022/11/17 06:02:55;;;;;;;3.03;2.73;;;;;;;4.15;100.00;98473.91;5051713;28;20179;-75
2022/11/17 06:05:22;;;;;;;2.20;2.00;;;;;;;4.16;100.00;98478.19;5050313;28;20180;-75
2022/11/17 06:07:49;;;;;;;3.10;2.87;;;;;;;4.14;100.00;98466.09;5051663;28;20488;-75
2022/11/17 06:10:15;;;;;;;2.60;2.10;;;;;;;4.15;100.00;98482.00;5051388;28;20206;-75
2022/11/17 06:12:40;;;;;;;1.83;1.63;;;;;;;4.15;100.00;98468.50;5051250;28;20195;-75
2022/11/17 06:15:06;;;;;;;2.80;2.60;;;;;;;4.11;100.00;98462.13;5033501;28;20212;-75
2022/11/17 06:17:36;;;;;;;3.67;3.37;;;;;;;4.12;100.00;98460.22;5051466;28;20559;-75
2022/11/17 06:20:08;;;;;;;4.17;3.83;;;;;;;4.09;100.00;98469.78;5051478;28;20176;-77
2022/11/17 06:22:34;;;;;;;3.93;2.97;;;;;;;4.10;100.00;98473.25;5051354;28;20548;-75
2022/11/17 06:25:02;;;;;;;2.67;2.47;;;;;;;4.08;100.00;98462.78;5051301;28;20176;-78
2022/11/17 06:27:30;;;;;;;3.87;3.53;;;;;;;4.06;100.00;98462.31;5051355;28;20205;-86
2022/11/17 06:30:02;;;;;;;5.33;4.93;;;;;;;4.02;100.00;98458.63;5051489;28;20695;-90
2022/11/17 06:32:28;;;;;;;4.63;4.23;;;;;;;4.01;100.00;98448.94;5033245;28;20277;-79
2022/11/17 06:34:53;;;;;;;1.70;1.60;;;;;;;4.03;100.00;98464.81;5050976;28;20177;-86
2022/11/17 06:37:19;;;;;;;4.20;3.80;;;;;;;3.98;100.00;98459.59;5050910;28;20175;-84
2022/11/17 06:39:44;;;;;;;4.90;3.27;;;;;;;3.99;100.00;98469.28;5051390;28;20177;-85
2022/11/17 06:42:09;;;;;;;5.67;5.17;;;;;;;3.94;100.00;98458.63;5050968;28;20168;-86
2022/11/17 06:44:35;;;;;;;3.27;3.07;;;;;;;3.96;100.00;98451.81;5050902;28;20171;-88
2022/11/17 06:47:01;;;;;;;2.67;2.47;;;;;;;3.94;100.00;98458.63;5051024;28;20194;-87
2022/11/17 06:49:26;;;;;;;3.43;3.13;;;;;;;3.94;100.00;98459.44;5051020;28;20695;-85
2022/11/17 06:51:52;;;;;;;1.30;1.20;;;;;;;3.94;100.00;98447.81;5050754;28;20191;-83
2022/11/17 06:54:17;;;;;;;0.97;0.97;;;;;;;3.95;100.00;98461.00;5050836;28;20175;-84
2022/11/17 06:56:43;;;;;;;1.33;1.27;;;;;;;3.93;100.00;98462.44;5050841;28;20174;-86
2022/11/17 06:59:08;;;;;;;3.37;3.17;;;;;;;3.92;100.00;98456.25;5050910;28;20171;-84
2022/11/17 07:01:33;;;;;;;3.47;3.10;;;;;;;3.89;100.00;98451.47;5050871;28;20254;-86
2022/11/17 07:03:59;;;;;;;5.67;5.17;;;;;;;3.86;100.00;98452.88;5050774;28;20175;-83
2022/11/17 07:06:24;;;;;;;4.23;3.93;;;;;;;3.84;100.00;98444.31;5050532;28;20474;-82
2022/11/17 07:08:49;;;;;;;2.60;2.40;;;;;;;3.87;100.00;98453.69;5050046;28;20178;-87
2022/11/17 07:11:15;;;;;;;1.13;1.13;;;;;;;3.89;100.00;98451.47;5050550;28;20187;-86
2022/11/17 07:13:41;;;;;;;1.70;1.60;;;;;;;3.84;100.00;98427.31;5050321;28;20594;-84
2022/11/17 07:16:08;;;;;;;11.73;3.37;;;;;;;3.79;100.00;98441.78;5051432;28;20175;-86
2022/11/17 07:18:35;;;;;;;2.67;2.47;;;;;;;3.76;100.00;98445.13;5051135;28;20638;-86
2022/11/17 07:21:06;;;;;;;2.17;1.90;;;;;;;3.74;100.00;98428.41;5051136;28;20228;-87
2022/11/17 07:23:33;;;;;;;1.00;1.00;;;;;;;3.77;100.00;98435.09;5032925;28;20535;-83
2022/11/17 07:25:59;;;;;;;1.87;1.77;;;;;;;3.74;100.00;98441.91;5050942;28;20175;-83
2022/11/17 07:28:25;;;;;;;5.07;4.23;;;;;;;3.72;100.00;98424.44;5051240;28;20182;-85
2022/11/17 07:30:50;;;;;;;2.50;2.30;;;;;;;3.72;100.00;98419.03;5051322;28;20174;-86
2022/11/17 07:33:15;;;;;;;3.47;3.17;;;;;;;3.73;100.00;98407.13;5050644;28;20194;-84
2022/11/17 07:35:41;;;;;;;2.00;1.80;;;;;;;3.70;100.00;98423.97;5050938;28;20262;-86
2022/11/17 07:38:07;;;;;;;3.77;3.40;;;;;;;3.67;100.00;98401.09;5045138;28;20237;-85
2022/11/17 07:40:32;;;;;;;4.20;3.90;;;;;;;3.66;100.00;98396.81;5050538;28;20178;-87
2022/11/17 07:42:57;;;;;;;2.90;2.67;;;;;;;3.67;100.00;98403.78;5050436;28;20239;-83
2022/11/17 07:45:23;;;;;;;2.93;2.27;;;;;;;3.65;100.00;98399.81;5050563;28;20182;-85
2022/11/17 07:47:53;;;;;;;2.17;1.97;;;;;;;3.67;100.00;98392.19;5050406;28;20566;-82
2022/11/17 07:50:18;;;;;;;3.30;3.00;;;;;;;3.64;100.00;98390.94;5050679;28;20163;-85
2022/11/17 07:52:43;;;;;;;3.23;3.03;;;;;;;3.65;100.00;98389.81;5050545;28;20214;-86
2022/11/17 07:55:09;;;;;;;2.33;2.13;;;;;;;3.64;100.00;98388.22;5050587;28;20198;-87
2022/11/17 07:57:34;;;;;;;1.77;1.67;;;;;;;3.59;100.00;98378.34;5050447;28;20176;-85
2022/11/17 08:00:00;;;;;;;2.70;2.23;;;;;;;3.61;100.00;98377.25;5050326;28;20313;-85
2022/11/17 08:02:26;;;;;;;2.50;2.30;;;;;;;3.57;100.00;98364.38;5050451;28;20213;-88
2022/11/17 08:04:52;;;;;;;1.53;1.43;;;;;;;3.59;100.00;98358.66;5050657;28;20217;-79
2022/11/17 08:07:17;;;;;;;3.00;1.80;;;;;;;3.56;100.00;98364.69;5050961;28;20658;-84
2022/11/17 08:09:42;;;;;;;1.73;1.63;;;;;;;3.55;100.00;98349.63;5050372;28;20191;-86
2022/11/17 08:12:07;;;;;;;2.60;2.40;;;;;;;3.54;100.00;98353.44;5050395;28;20724;-87
2022/11/17 08:14:33;;;;;;;1.53;1.43;;;;;;;3.57;100.00;98369.78;5049915;28;20175;-86
2022/11/17 08:16:58;;;;;;;1.90;1.80;;;;;;;3.56;100.00;98362.00;5050024;28;20653;-84
2022/11/17 08:19:23;;;;;;;3.77;3.47;;;;;;;3.55;100.00;98363.13;5050235;28;20180;-85
2022/11/17 08:21:49;;;;;;;1.80;1.70;;;;;;;3.56;100.00;98354.69;5052429;28;20175;-84
2022/11/17 08:24:15;;;;;;;3.57;3.27;;;;;;;3.54;100.00;98366.94;5053833;28;20172;-85
2022/11/17 08:26:40;;;;;;;2.27;2.00;;;;;;;3.51;100.00;98337.88;5053804;28;20205;-89
2022/11/17 08:29:05;;;;;;;2.53;2.33;;;;;;;3.52;100.00;98347.56;5054114;28;20175;-84
2022/11/17 08:31:31;;;;;;;3.27;2.97;;;;;;;3.53;100.00;98343.75;5053633;28;20553;-85
2022/11/17 08:33:57;;;;;;;5.23;3.70;;;;;;;3.52;100.00;98336.75;5053524;28;20179;-89
2022/11/17 08:36:22;;;;;;;2.77;2.13;;;;;;;3.51;100.00;98337.88;5054035;28;20175;-86
2022/11/17 08:38:47;;;;;;;2.53;2.33;;;;;;;3.53;100.00;98338.34;5054003;28;20167;-85
2022/11/17 08:41:12;;;;;;;1.90;1.73;;;;;;;3.54;100.00;98345.34;5053497;28;20168;-82
2022/11/17 08:43:38;;;;;;;5.30;4.83;;;;;;;3.52;100.00;98334.84;5053067;28;20171;-86
2022/11/17 08:46:03;;;;;;;5.10;3.33;;;;;;;3.56;100.00;98338.50;5052355;28;20619;-82
2022/11/17 08:48:30;;;;;;;2.37;2.13;;;;;;;3.58;100.00;98357.88;5051104;28;20179;-86
2022/11/17 08:50:56;;;;;;;2.47;2.27;;;;;;;3.57;100.00;98352.78;5053090;28;20660;-76
2022/11/17 08:53:22;;;;;;;3.03;2.77;;;;;;;3.55;100.00;98363.13;5052981;28;20206;-82
2022/11/17 08:55:48;;;;;;;1.33;1.10;;;;;;;3.59;100.00;98367.56;5053243;28;20680;-87
2022/11/17 08:58:13;;;;;;;3.63;3.27;;;;;;;3.57;100.00;98358.19;5053291;28;20623;-89
2022/11/17 09:00:39;;;;;;;5.33;3.47;;;;;;;3.54;100.00;98356.91;5036867;28;20229;-87
2022/11/17 09:03:06;;;;;;;5.70;5.30;;;;;;;3.51;100.00;98348.66;5053075;28;20171;-87
2022/11/17 09:05:34;;;;;;;4.67;4.27;;;;;;;3.52;100.00;98340.25;5052783;28;20179;-81
2022/11/17 09:07:59;;;;;;;3.10;2.90;;;;;;;3.54;100.00;98337.22;5054051;28;20179;-81
2022/11/17 09:10:24;;;;;;;2.43;1.87;;;;;;;3.58;100.00;98338.97;5053043;28;20249;-86
2022/11/17 09:12:54;;;;;;;1.97;1.80;;;;;;;3.59;100.00;98337.06;5052791;28;20290;-85
2022/11/17 09:15:20;;;;;;;2.37;2.17;;;;;;;3.55;100.00;98345.00;5052887;28;20250;-75
2022/11/17 09:17:46;;;;;;;6.60;4.63;;;;;;;3.59;100.00;98354.06;5053122;28;20175;-83
2022/11/17 09:20:12;;;;;;;6.70;2.80;;;;;;;3.59;100.00;98356.75;5052825;28;20350;-85
2022/11/17 09:22:38;;;;;;;2.03;1.70;;;;;;;3.58;100.00;98362.47;5053557;28;20182;-84
2022/11/17 09:25:04;;;;;;;1.50;1.30;;;;;;;3.63;100.00;98372.34;5048980;28;20212;-84
2022/11/17 09:27:29;;;;;;;1.47;1.40;;;;;;;3.60;100.00;98362.94;5072574;28;20182;-89
2022/11/17 09:29:55;;;;;;;2.60;2.40;;;;;;;3.63;100.00;98383.16;5072505;28;20178;-84
2022/11/17 09:32:20;;;;;;;1.93;1.70;;;;;;;3.63;100.00;98375.03;5054061;28;20202;-84
2022/11/17 09:34:45;;;;;;;4.33;3.23;;;;;;;3.65;100.00;98384.41;5064628;28;20187;-81
2022/11/17 09:37:10;;;;;;;2.23;2.03;;;;;;;3.66;100.00;98385.22;5070906;28;20629;-87
2022/11/17 09:39:36;;;;;;;2.97;2.77;;;;;;;3.65;100.00;98410.63;5072588;28;20201;-85
2022/11/17 09:42:02;;;;;;;8.20;3.40;;;;;;;3.66;100.00;98393.31;5072700;28;20179;-87
2022/11/17 09:44:30;;;;;;;2.50;2.30;;;;;;;3.69;100.00;98385.38;5064494;28;20309;-89
2022/11/17 09:47:01;;;;;;;2.73;1.43;;;;;;;3.69;100.00;98376.47;5053639;28;20186;-88
2022/11/17 09:49:50;;;;;;;4.60;1.43;;;;;;;3.74;100.00;98381.69;5054065;28;20198;-90
2022/11/17 09:52:22;;;;;;;2.90;2.67;;;;;;;3.76;100.00;98365.97;5041053;28;20282;-86
2022/11/17 09:55:19;;;;;;;3.00;2.80;;;;;;;3.80;100.00;98370.44;5066125;28;20210;-85
2022/11/17 09:57:56;;;;;;;2.23;2.00;;;;;;;3.85;100.00;98370.28;5055961;28;20709;-72
2022/11/17 10:00:22;;;;;;;0.80;0.80;;;;;;;3.88;100.00;98374.25;5061729;28;20170;-87
2022/11/17 10:02:49;;;;;;;2.17;1.10;;;;;;;3.91;100.00;98381.72;5059575;28;20176;-88
2022/11/17 10:05:33;;;;;;;2.47;2.27;;;;;;;3.94;100.00;98374.91;5061034;28;20529;-84
2022/11/17 10:08:05;;;;;;;1.37;0.87;;;;;;;4.00;100.00;98371.69;5057762;28;20171;-88
2022/11/17 10:10:49;;;;;;;1.73;1.60;;;;;;;4.05;100.00;98370.72;5059157;28;20613;-84
2022/11/17 10:13:29;;;;;;;5.80;2.00;;;;;;;4.02;100.00;98365.97;5038384;28;20203;-83
2022/11/17 10:16:06;;;;;;;1.30;1.20;;;;;;;4.06;100.00;98373.13;5052744;28;20186;-89
2022/11/17 10:18:35;;;;;;;0.80;0.80;;;;;;;4.01;100.00;98365.19;5052746;28;20174;-89
2022/11/17 10:21:01;;;;;;;1.50;1.40;;;;;;;4.02;100.00;98364.06;5052001;28;20168;-85
2022/11/17 10:23:34;;;;;;;0.63;0.63;;;;;;;4.01;100.00;98354.38;5051820;28;20209;-87
2022/11/17 10:26:00;;;;;;;3.93;1.33;;;;;;;4.01;100.00;98351.66;5051407;28;20171;-82
2022/11/17 10:28:31;;;;;;;1.80;1.27;;;;;;;4.04;100.00;98344.84;5051662;28;20179;-84
2022/11/17 10:31:03;;;;;;;1.83;1.73;;;;;;;4.01;100.00;98338.16;5033741;28;20233;-87
2022/11/17 10:33:41;;;;;;;0.63;0.63;;;;;;;4.00;100.00;98331.19;5051145;28;20210;-86
2022/11/17 10:36:18;;;;;;;2.17;1.67;;;;;;;4.04;100.00;98336.72;5051296;28;20242;-87
2022/11/17 10:38:46;;;;;;;1.87;1.77;;;;;;;3.99;100.00;98328.78;5051111;28;20249;-84
2022/11/17 10:41:16;;;;;;;2.50;2.30;;;;;;;3.95;100.00;98322.44;5051199;28;20194;-83
2022/11/17 10:44:04;;;;;;;4.20;1.80;;;;;;;3.99;100.00;98323.38;5032242;28;20581;-81
2022/11/17 10:46:30;;;;;;;3.73;1.80;;;;;;;3.96;100.00;98322.13;5050363;28;20761;-86
2022/11/17 10:49:03;;;;;;;2.10;1.83;;;;;;;3.98;100.00;98319.09;5049061;28;20183;-82
2022/11/17 10:51:34;;;;;;;0.57;0.57;;;;;;;3.99;100.00;98329.59;5050810;28;20171;-86
2022/11/17 10:54:20;;;;;;;1.63;1.53;;;;;;;4.03;100.00;98330.53;5050715;28;20183;-85
2022/11/17 10:56:50;;;;;;;2.17;1.97;;;;;;;3.98;100.00;98311.00;5050916;28;20289;-84
2022/11/17 10:59:23;;;;;;;2.53;2.33;;;;;;;4.00;100.00;98325.78;5050948;28;20711;-84
2022/11/17 11:01:51;;;;;;;1.90;1.80;;;;;;;3.99;100.00;98313.38;5050757;28;20638;-84
2022/11/17 11:05:03;;;;;;;2.47;2.33;;;;;;;4.05;100.00;98324.81;5050604;28;20233;-83
2022/11/17 11:07:29;;;;;;;1.20;1.10;;;;;;;4.04;100.00;98313.19;5013516;28;20578;-87
2022/11/17 11:10:18;;;;;;;4.47;2.90;;;;;;;4.06;100.00;98307.50;5050633;28;20278;-84
2022/11/17 11:12:44;;;;;;;0.63;0.63;;;;;;;4.07;100.00;98304.47;5050515;28;20681;-86
2022/11/17 11:15:17;;;;;;;1.73;1.63;;;;;;;4.11;100.00;98312.72;5051089;28;20209;-88
2022/11/17 11:17:43;;;;;;;0.37;0.37;;;;;;;4.15;100.00;98311.75;5050893;28;20193;-88
2022/11/17 11:20:16;;;;;;;1.33;1.23;;;;;;;4.14;100.00;98312.88;5033598;28;20214;-84
2022/11/17 11:23:01;;;;;;;1.37;0.97;;;;;;;4.16;100.00;98307.16;5031067;28;20180;-90
2022/11/17 11:25:35;;;;;;;0.60;0.60;;;;;;;4.15;100.00;98308.25;5031237;28;20218;-90
2022/11/17 11:28:22;;;;;;;0.83;0.83;;;;;;;4.20;100.00;98301.91;5031313;28;20172;-86
2022/11/17 11:31:18;;;;;;;1.63;1.47;;;;;;;4.18;100.00;98299.50;5031250;28;20642;-85
2022/11/17 11:34:04;;;;;;;0.33;0.33;;;;;;;4.26;100.00;98296.00;5030865;28;20203;-89
2022/11/17 11:36:35;;;;;;;1.87;1.40;;;;;;;4.25;100.00;98294.41;5031246;28;20168;-89
2022/11/17 11:39:20;;;;;;;3.77;3.47;;;;;;;4.25;100.00;98299.03;5031415;28;20172;-91
2022/11/17 11:41:52;;;;;;;3.80;2.63;;;;;;;4.28;100.00;98287.56;5031283;28;20163;-90
2022/11/17 11:44:42;;;;;;;1.20;1.20;;;;;;;4.29;100.00;98283.75;5031284;28;20183;-88
2022/11/17 11:47:32;;;;;;;1.37;0.87;;;;;;;4.35;100.00;98291.38;5031629;28;20627;-90
2022/11/17 11:50:08;;;;;;;0.93;0.90;;;;;;;4.35;100.00;98309.50;5013723;28;20192;-88
2022/11/17 11:52:39;;;;;;;1.30;1.20;;;;;;;4.35;100.00;98299.47;5031058;28;20199;-84
2022/11/17 11:55:15;;;;;;;0.10;0.10;;;;;;;4.39;100.00;98307.72;5031463;28;20211;-88
2022/11/17 11:57:48;;;;;;;0.80;0.80;;;;;;;4.40;100.00;98312.81;5034403;28;20175;-85
2022/11/17 12:00:15;;;;;;;0.90;0.90;;;;;;;4.42;100.00;98313.28;5033848;28;20199;-89
2022/11/17 12:02:52;;;;;;;1.80;1.70;;;;;;;4.38;100.00;98311.56;5033671;28;20322;-87
2022/11/17 12:05:23;;;;;;;0.63;0.63;;;;;;;4.46;100.00;98316.13;5033900;28;20187;-82
2022/11/17 12:07:56;;;;;;;2.63;2.47;;;;;;;4.45;100.00;98317.25;5034448;28;20171;-81
2022/11/17 12:10:33;;;;;;;3.20;1.07;;;;;;;4.49;100.00;98310.09;5034610;28;20208;-81
2022/11/17 12:12:59;;;;;;;1.10;1.10;;;;;;;4.51;100.00;98313.25;5035252;28;20211;-83
2022/11/17 12:15:24;;;;;;;0.53;0.43;;;;;;;4.50;100.00;98317.09;5034367;28;20176;-78